sensor_id;sensor_type;location;lat;lon;timestamp;P1;durP1;ratioP1;P2;durP2;ratioP2
48526;SDS011;34317;51.660;5.824;2023-03-08T00:00:51;13.82;;;6.95;;
48526;SDS011;34317;51.660;5.824;2023-03-08T00:03:18;13.25;;;6.47;;
48526;SDS011;34317;51.660;5.824;2023-03-08T00:05:45;14.10;;;7.13;;
48526;SDS011;34317;51.660;5.824;2023-03-08T00:08:12;14.50;;;7.43;;
48526;SDS011;34317;51.660;5.824;2023-03-08T00:10:40;17.92;;;7.22;;
48526;SDS011;34317;51.660;5.824;2023-03-08T00:13:07;13.52;;;7.15;;
48526;SDS011;34317;51.660;5.824;2023-03-08T00:15:35;12.35;;;6.95;;
48526;SDS011;34317;51.660;5.824;2023-03-08T00:18:04;11.95;;;6.85;;
48526;SDS011;34317;51.660;5.824;2023-03-08T00:20:32;13.48;;;7.18;;
48526;SDS011;34317;51.660;5.824;2023-03-08T00:22:59;17.02;;;7.65;;
48526;SDS011;34317;51.660;5.824;2023-03-08T00:25:27;17.98;;;8.00;;
48526;SDS011;34317;51.660;5.824;2023-03-08T00:27:54;13.90;;;7.53;;
48526;SDS011;34317;51.660;5.824;2023-03-08T00:30:21;12.73;;;6.97;;
48526;SDS011;34317;51.660;5.824;2023-03-08T00:32:48;16.15;;;7.35;;
48526;SDS011;34317;51.660;5.824;2023-03-08T00:35:15;13.25;;;7.30;;
48526;SDS011;34317;51.660;5.824;2023-03-08T00:37:45;15.13;;;7.15;;
48526;SDS011;34317;51.660;5.824;2023-03-08T00:40:15;15.63;;;7.57;;
48526;SDS011;34317;51.660;5.824;2023-03-08T00:42:42;13.18;;;7.15;;
48526;SDS011;34317;51.660;5.824;2023-03-08T00:45:10;15.55;;;7.65;;
48526;SDS011;34317;51.660;5.824;2023-03-08T00:47:37;14.73;;;7.65;;
48526;SDS011;34317;51.660;5.824;2023-03-08T00:50:05;17.33;;;8.02;;
48526;SDS011;34317;51.660;5.824;2023-03-08T00:52:33;13.40;;;7.70;;
48526;SDS011;34317;51.660;5.824;2023-03-08T00:55:00;15.88;;;7.72;;
48526;SDS011;34317;51.660;5.824;2023-03-08T00:57:27;20.27;;;8.57;;
48526;SDS011;34317;51.660;5.824;2023-03-08T00:59:54;18.67;;;8.15;;
48526;SDS011;34317;51.660;5.824;2023-03-08T01:02:21;16.17;;;8.65;;
48526;SDS011;34317;51.660;5.824;2023-03-08T01:04:49;14.65;;;7.95;;
48526;SDS011;34317;51.660;5.824;2023-03-08T01:07:16;18.05;;;8.48;;
48526;SDS011;34317;51.660;5.824;2023-03-08T01:09:44;16.85;;;8.25;;
48526;SDS011;34317;51.660;5.824;2023-03-08T01:12:12;15.75;;;8.60;;
48526;SDS011;34317;51.660;5.824;2023-03-08T01:14:40;16.08;;;8.23;;
48526;SDS011;34317;51.660;5.824;2023-03-08T01:17:07;14.27;;;8.00;;
48526;SDS011;34317;51.660;5.824;2023-03-08T01:19:35;16.77;;;9.02;;
48526;SDS011;34317;51.660;5.824;2023-03-08T01:22:03;18.40;;;9.10;;
48526;SDS011;34317;51.660;5.824;2023-03-08T01:24:31;21.98;;;9.52;;
48526;SDS011;34317;51.660;5.824;2023-03-08T01:26:59;21.05;;;10.43;;
48526;SDS011;34317;51.660;5.824;2023-03-08T01:29:27;18.20;;;9.50;;
48526;SDS011;34317;51.660;5.824;2023-03-08T01:31:57;20.45;;;9.95;;
48526;SDS011;34317;51.660;5.824;2023-03-08T01:34:24;20.35;;;10.32;;
48526;SDS011;34317;51.660;5.824;2023-03-08T01:36:51;20.25;;;10.13;;
48526;SDS011;34317;51.660;5.824;2023-03-08T01:39:18;20.45;;;10.52;;
48526;SDS011;34317;51.660;5.824;2023-03-08T01:41:45;21.52;;;11.02;;
48526;SDS011;34317;51.660;5.824;2023-03-08T01:44:16;23.58;;;11.63;;
48526;SDS011;34317;51.660;5.824;2023-03-08T01:46:45;22.40;;;11.32;;
48526;SDS011;34317;51.660;5.824;2023-03-08T01:49:34;24.73;;;11.35;;
48526;SDS011;34317;51.660;5.824;2023-03-08T01:54:37;20.42;;;11.02;;
48526;SDS011;34317;51.660;5.824;2023-03-08T01:57:11;23.45;;;10.85;;
48526;SDS011;34317;51.660;5.824;2023-03-08T01:59:43;20.42;;;11.80;;
48526;SDS011;34317;51.660;5.824;2023-03-08T02:02:15;22.27;;;11.30;;
48526;SDS011;34317;51.660;5.824;2023-03-08T02:04:45;23.30;;;11.75;;
48526;SDS011;34317;51.660;5.824;2023-03-08T02:07:13;22.08;;;11.70;;
48526;SDS011;34317;51.660;5.824;2023-03-08T02:09:42;25.55;;;11.80;;
48526;SDS011;34317;51.660;5.824;2023-03-08T02:12:10;23.80;;;12.38;;
48526;SDS011;34317;51.660;5.824;2023-03-08T02:14:40;23.42;;;12.20;;
48526;SDS011;34317;51.660;5.824;2023-03-08T02:17:09;23.83;;;12.60;;
48526;SDS011;34317;51.660;5.824;2023-03-08T02:19:42;24.15;;;13.10;;
48526;SDS011;34317;51.660;5.824;2023-03-08T02:22:14;24.67;;;13.23;;
48526;SDS011;34317;51.660;5.824;2023-03-08T02:24:44;25.73;;;13.55;;
48526;SDS011;34317;51.660;5.824;2023-03-08T02:27:13;27.67;;;13.73;;
48526;SDS011;34317;51.660;5.824;2023-03-08T02:29:44;25.40;;;13.32;;
48526;SDS011;34317;51.660;5.824;2023-03-08T02:32:11;29.65;;;13.45;;
48526;SDS011;34317;51.660;5.824;2023-03-08T02:34:39;27.70;;;14.48;;
48526;SDS011;34317;51.660;5.824;2023-03-08T02:37:06;29.25;;;13.73;;
48526;SDS011;34317;51.660;5.824;2023-03-08T02:39:33;31.15;;;14.20;;
48526;SDS011;34317;51.660;5.824;2023-03-08T02:42:01;26.60;;;13.80;;
48526;SDS011;34317;51.660;5.824;2023-03-08T02:44:28;25.50;;;13.65;;
48526;SDS011;34317;51.660;5.824;2023-03-08T02:46:55;28.30;;;13.95;;
48526;SDS011;34317;51.660;5.824;2023-03-08T02:49:22;31.00;;;14.15;;
48526;SDS011;34317;51.660;5.824;2023-03-08T02:51:51;28.50;;;14.80;;
48526;SDS011;34317;51.660;5.824;2023-03-08T02:54:19;26.33;;;13.82;;
48526;SDS011;34317;51.660;5.824;2023-03-08T02:56:46;30.67;;;15.05;;
48526;SDS011;34317;51.660;5.824;2023-03-08T02:59:13;29.40;;;14.18;;
48526;SDS011;34317;51.660;5.824;2023-03-08T03:01:43;29.52;;;14.25;;
48526;SDS011;34317;51.660;5.824;2023-03-08T03:04:10;30.67;;;15.27;;
48526;SDS011;34317;51.660;5.824;2023-03-08T03:06:37;31.80;;;15.00;;
48526;SDS011;34317;51.660;5.824;2023-03-08T03:09:08;30.63;;;15.10;;
48526;SDS011;34317;51.660;5.824;2023-03-08T03:11:36;31.73;;;14.80;;
48526;SDS011;34317;51.660;5.824;2023-03-08T03:14:06;39.58;;;17.17;;
48526;SDS011;34317;51.660;5.824;2023-03-08T03:16:38;35.47;;;15.95;;
48526;SDS011;34317;51.660;5.824;2023-03-08T03:19:05;38.08;;;16.65;;
48526;SDS011;34317;51.660;5.824;2023-03-08T03:21:32;38.97;;;16.73;;
48526;SDS011;34317;51.660;5.824;2023-03-08T03:24:00;33.92;;;16.08;;
48526;SDS011;34317;51.660;5.824;2023-03-08T03:26:38;35.17;;;16.88;;
48526;SDS011;34317;51.660;5.824;2023-03-08T03:29:06;38.10;;;17.55;;
48526;SDS011;34317;51.660;5.824;2023-03-08T03:31:36;38.22;;;16.92;;
48526;SDS011;34317;51.660;5.824;2023-03-08T03:34:04;39.42;;;17.02;;
48526;SDS011;34317;51.660;5.824;2023-03-08T03:36:31;40.90;;;17.58;;
48526;SDS011;34317;51.660;5.824;2023-03-08T03:39:00;36.97;;;17.05;;
48526;SDS011;34317;51.660;5.824;2023-03-08T03:41:29;43.90;;;18.83;;
48526;SDS011;34317;51.660;5.824;2023-03-08T03:44:07;43.72;;;18.88;;
48526;SDS011;34317;51.660;5.824;2023-03-08T03:46:35;37.92;;;17.52;;
48526;SDS011;34317;51.660;5.824;2023-03-08T03:49:04;41.83;;;18.02;;
48526;SDS011;34317;51.660;5.824;2023-03-08T03:51:36;35.92;;;17.02;;
48526;SDS011;34317;51.660;5.824;2023-03-08T03:54:18;38.92;;;17.35;;
48526;SDS011;34317;51.660;5.824;2023-03-08T03:56:46;34.45;;;16.80;;
48526;SDS011;34317;51.660;5.824;2023-03-08T03:59:13;36.63;;;16.50;;
48526;SDS011;34317;51.660;5.824;2023-03-08T04:01:41;35.38;;;16.65;;
48526;SDS011;34317;51.660;5.824;2023-03-08T04:04:17;32.70;;;16.25;;
48526;SDS011;34317;51.660;5.824;2023-03-08T04:06:46;37.38;;;17.17;;
48526;SDS011;34317;51.660;5.824;2023-03-08T04:09:17;30.55;;;14.05;;
48526;SDS011;34317;51.660;5.824;2023-03-08T04:11:54;25.80;;;10.95;;
48526;SDS011;34317;51.660;5.824;2023-03-08T04:14:22;25.15;;;10.77;;
48526;SDS011;34317;51.660;5.824;2023-03-08T04:16:52;26.50;;;11.15;;
48526;SDS011;34317;51.660;5.824;2023-03-08T04:19:25;23.25;;;10.60;;
48526;SDS011;34317;51.660;5.824;2023-03-08T04:21:55;22.88;;;10.55;;
48526;SDS011;34317;51.660;5.824;2023-03-08T04:24:27;20.75;;;9.63;;
48526;SDS011;34317;51.660;5.824;2023-03-08T04:26:59;21.63;;;10.43;;
48526;SDS011;34317;51.660;5.824;2023-03-08T04:29:27;23.05;;;10.25;;
48526;SDS011;34317;51.660;5.824;2023-03-08T04:31:55;21.50;;;10.57;;
48526;SDS011;34317;51.660;5.824;2023-03-08T04:34:31;21.38;;;10.38;;
48526;SDS011;34317;51.660;5.824;2023-03-08T04:36:59;20.45;;;10.05;;
48526;SDS011;34317;51.660;5.824;2023-03-08T04:39:26;22.75;;;9.90;;
48526;SDS011;34317;51.660;5.824;2023-03-08T04:41:54;24.02;;;10.57;;
48526;SDS011;34317;51.660;5.824;2023-03-08T04:44:25;25.08;;;10.82;;
48526;SDS011;34317;51.660;5.824;2023-03-08T04:46:52;23.48;;;10.93;;
48526;SDS011;34317;51.660;5.824;2023-03-08T04:49:27;19.47;;;9.60;;
48526;SDS011;34317;51.660;5.824;2023-03-08T04:51:59;24.25;;;10.27;;
48526;SDS011;34317;51.660;5.824;2023-03-08T04:54:27;25.00;;;10.88;;
48526;SDS011;34317;51.660;5.824;2023-03-08T04:57:00;24.05;;;9.93;;
48526;SDS011;34317;51.660;5.824;2023-03-08T04:59:29;22.92;;;10.02;;
48526;SDS011;34317;51.660;5.824;2023-03-08T05:01:59;21.58;;;10.32;;
48526;SDS011;34317;51.660;5.824;2023-03-08T05:04:29;21.15;;;9.93;;
48526;SDS011;34317;51.660;5.824;2023-03-08T05:06:56;21.83;;;10.20;;
48526;SDS011;34317;51.660;5.824;2023-03-08T05:09:26;23.63;;;10.68;;
48526;SDS011;34317;51.660;5.824;2023-03-08T05:11:53;25.85;;;10.32;;
48526;SDS011;34317;51.660;5.824;2023-03-08T05:14:22;24.20;;;10.85;;
48526;SDS011;34317;51.660;5.824;2023-03-08T05:16:49;23.67;;;10.93;;
48526;SDS011;34317;51.660;5.824;2023-03-08T05:19:17;26.38;;;10.55;;
48526;SDS011;34317;51.660;5.824;2023-03-08T05:21:48;22.58;;;10.60;;
48526;SDS011;34317;51.660;5.824;2023-03-08T05:24:16;22.90;;;10.48;;
48526;SDS011;34317;51.660;5.824;2023-03-08T05:26:43;21.88;;;9.98;;
48526;SDS011;34317;51.660;5.824;2023-03-08T05:29:14;23.45;;;10.60;;
48526;SDS011;34317;51.660;5.824;2023-03-08T05:31:42;23.77;;;10.35;;
48526;SDS011;34317;51.660;5.824;2023-03-08T05:34:12;25.52;;;10.52;;
48526;SDS011;34317;51.660;5.824;2023-03-08T05:36:43;23.63;;;10.40;;
48526;SDS011;34317;51.660;5.824;2023-03-08T05:39:11;22.20;;;10.15;;
48526;SDS011;34317;51.660;5.824;2023-03-08T05:41:48;23.15;;;10.23;;
48526;SDS011;34317;51.660;5.824;2023-03-08T05:44:22;25.67;;;10.35;;
48526;SDS011;34317;51.660;5.824;2023-03-08T05:46:50;23.00;;;10.23;;
48526;SDS011;34317;51.660;5.824;2023-03-08T05:49:18;25.67;;;11.23;;
48526;SDS011;34317;51.660;5.824;2023-03-08T05:51:46;24.23;;;10.77;;
48526;SDS011;34317;51.660;5.824;2023-03-08T05:54:14;28.67;;;11.00;;
48526;SDS011;34317;51.660;5.824;2023-03-08T05:56:43;25.48;;;11.15;;
48526;SDS011;34317;51.660;5.824;2023-03-08T05:59:19;29.80;;;13.48;;
48526;SDS011;34317;51.660;5.824;2023-03-08T06:01:48;30.58;;;13.15;;
48526;SDS011;34317;51.660;5.824;2023-03-08T06:04:25;28.75;;;12.75;;
48526;SDS011;34317;51.660;5.824;2023-03-08T06:06:53;27.88;;;12.70;;
48526;SDS011;34317;51.660;5.824;2023-03-08T06:09:24;29.27;;;13.02;;
48526;SDS011;34317;51.660;5.824;2023-03-08T06:11:51;29.88;;;13.73;;
48526;SDS011;34317;51.660;5.824;2023-03-08T06:14:18;29.70;;;12.82;;
48526;SDS011;34317;51.660;5.824;2023-03-08T06:16:46;31.60;;;14.15;;
48526;SDS011;34317;51.660;5.824;2023-03-08T06:19:16;27.80;;;12.48;;
48526;SDS011;34317;51.660;5.824;2023-03-08T06:21:45;36.40;;;14.18;;
48526;SDS011;34317;51.660;5.824;2023-03-08T06:24:12;31.85;;;14.18;;
48526;SDS011;34317;51.660;5.824;2023-03-08T06:26:40;29.33;;;13.77;;
48526;SDS011;34317;51.660;5.824;2023-03-08T06:29:07;32.30;;;14.32;;
48526;SDS011;34317;51.660;5.824;2023-03-08T06:31:34;33.47;;;13.48;;
48526;SDS011;34317;51.660;5.824;2023-03-08T06:34:03;31.05;;;13.77;;
48526;SDS011;34317;51.660;5.824;2023-03-08T06:36:30;33.13;;;13.52;;
48526;SDS011;34317;51.660;5.824;2023-03-08T06:38:58;31.65;;;13.45;;
48526;SDS011;34317;51.660;5.824;2023-03-08T06:41:25;32.65;;;13.73;;
48526;SDS011;34317;51.660;5.824;2023-03-08T06:43:55;29.98;;;13.57;;
48526;SDS011;34317;51.660;5.824;2023-03-08T06:46:22;24.65;;;11.25;;
48526;SDS011;34317;51.660;5.824;2023-03-08T06:48:50;22.73;;;10.93;;
48526;SDS011;34317;51.660;5.824;2023-03-08T06:51:18;24.38;;;11.52;;
48526;SDS011;34317;51.660;5.824;2023-03-08T06:53:47;21.33;;;10.57;;
48526;SDS011;34317;51.660;5.824;2023-03-08T06:56:18;25.15;;;10.48;;
48526;SDS011;34317;51.660;5.824;2023-03-08T06:58:45;23.70;;;9.45;;
48526;SDS011;34317;51.660;5.824;2023-03-08T07:01:12;19.90;;;9.20;;
48526;SDS011;34317;51.660;5.824;2023-03-08T07:03:40;18.15;;;8.88;;
48526;SDS011;34317;51.660;5.824;2023-03-08T07:06:08;19.17;;;8.30;;
48526;SDS011;34317;51.660;5.824;2023-03-08T07:08:36;16.48;;;7.80;;
48526;SDS011;34317;51.660;5.824;2023-03-08T07:11:05;17.10;;;7.53;;
48526;SDS011;34317;51.660;5.824;2023-03-08T07:13:34;18.15;;;7.95;;
48526;SDS011;34317;51.660;5.824;2023-03-08T07:16:09;18.55;;;7.70;;
48526;SDS011;34317;51.660;5.824;2023-03-08T07:21:06;14.55;;;6.40;;
48526;SDS011;34317;51.660;5.824;2023-03-08T07:23:36;16.83;;;7.20;;
48526;SDS011;34317;51.660;5.824;2023-03-08T07:26:04;13.27;;;6.13;;
48526;SDS011;34317;51.660;5.824;2023-03-08T07:28:32;15.57;;;7.22;;
48526;SDS011;34317;51.660;5.824;2023-03-08T07:31:00;13.27;;;6.82;;
48526;SDS011;34317;51.660;5.824;2023-03-08T07:33:27;12.98;;;5.93;;
48526;SDS011;34317;51.660;5.824;2023-03-08T07:35:54;12.13;;;6.07;;
48526;SDS011;34317;51.660;5.824;2023-03-08T07:38:27;12.40;;;5.97;;
48526;SDS011;34317;51.660;5.824;2023-03-08T07:40:55;12.55;;;6.57;;
48526;SDS011;34317;51.660;5.824;2023-03-08T07:43:22;15.30;;;6.35;;
48526;SDS011;34317;51.660;5.824;2023-03-08T07:45:52;11.57;;;6.35;;
48526;SDS011;34317;51.660;5.824;2023-03-08T07:48:20;15.23;;;6.78;;
48526;SDS011;34317;51.660;5.824;2023-03-08T07:50:47;13.55;;;6.40;;
48526;SDS011;34317;51.660;5.824;2023-03-08T07:53:14;13.50;;;6.50;;
48526;SDS011;34317;51.660;5.824;2023-03-08T07:55:42;12.23;;;6.25;;
48526;SDS011;34317;51.660;5.824;2023-03-08T07:58:09;11.48;;;5.70;;
48526;SDS011;34317;51.660;5.824;2023-03-08T08:00:36;11.60;;;5.45;;
48526;SDS011;34317;51.660;5.824;2023-03-08T08:03:04;12.90;;;6.40;;
48526;SDS011;34317;51.660;5.824;2023-03-08T08:05:31;11.18;;;6.10;;
48526;SDS011;34317;51.660;5.824;2023-03-08T08:08:01;15.77;;;6.18;;
48526;SDS011;34317;51.660;5.824;2023-03-08T08:10:29;11.05;;;6.10;;
48526;SDS011;34317;51.660;5.824;2023-03-08T08:12:56;10.07;;;5.68;;
48526;SDS011;34317;51.660;5.824;2023-03-08T08:15:23;10.88;;;5.47;;
48526;SDS011;34317;51.660;5.824;2023-03-08T08:17:51;8.98;;;4.85;;
48526;SDS011;34317;51.660;5.824;2023-03-08T08:20:19;10.50;;;5.10;;
48526;SDS011;34317;51.660;5.824;2023-03-08T08:22:46;7.82;;;3.45;;
48526;SDS011;34317;51.660;5.824;2023-03-08T08:25:15;8.75;;;4.55;;
48526;SDS011;34317;51.660;5.824;2023-03-08T08:27:42;8.43;;;4.10;;
48526;SDS011;34317;51.660;5.824;2023-03-08T08:30:11;8.32;;;3.72;;
48526;SDS011;34317;51.660;5.824;2023-03-08T08:32:39;7.25;;;3.88;;
48526;SDS011;34317;51.660;5.824;2023-03-08T08:35:06;8.43;;;3.80;;
48526;SDS011;34317;51.660;5.824;2023-03-08T08:37:34;10.48;;;4.25;;
48526;SDS011;34317;51.660;5.824;2023-03-08T08:40:01;9.20;;;4.78;;
48526;SDS011;34317;51.660;5.824;2023-03-08T08:42:29;8.20;;;4.47;;
48526;SDS011;34317;51.660;5.824;2023-03-08T08:44:56;11.27;;;4.78;;
48526;SDS011;34317;51.660;5.824;2023-03-08T08:47:24;9.35;;;4.57;;
48526;SDS011;34317;51.660;5.824;2023-03-08T08:49:51;9.85;;;4.95;;
48526;SDS011;34317;51.660;5.824;2023-03-08T08:52:18;12.05;;;4.88;;
48526;SDS011;34317;51.660;5.824;2023-03-08T08:54:45;8.60;;;4.43;;
48526;SDS011;34317;51.660;5.824;2023-03-08T08:57:12;12.82;;;5.30;;
48526;SDS011;34317;51.660;5.824;2023-03-08T08:59:39;9.82;;;5.07;;
48526;SDS011;34317;51.660;5.824;2023-03-08T09:02:08;9.85;;;5.13;;
48526;SDS011;34317;51.660;5.824;2023-03-08T09:04:36;10.77;;;5.13;;
48526;SDS011;34317;51.660;5.824;2023-03-08T09:07:04;11.27;;;5.88;;
48526;SDS011;34317;51.660;5.824;2023-03-08T09:09:33;12.32;;;5.80;;
48526;SDS011;34317;51.660;5.824;2023-03-08T09:12:00;12.75;;;6.40;;
48526;SDS011;34317;51.660;5.824;2023-03-08T09:14:27;11.02;;;6.28;;
48526;SDS011;34317;51.660;5.824;2023-03-08T09:16:54;15.18;;;7.47;;
48526;SDS011;34317;51.660;5.824;2023-03-08T09:19:21;15.68;;;7.32;;
48526;SDS011;34317;51.660;5.824;2023-03-08T09:21:49;16.27;;;7.47;;
48526;SDS011;34317;51.660;5.824;2023-03-08T09:24:16;17.73;;;8.55;;
48526;SDS011;34317;51.660;5.824;2023-03-08T09:26:43;18.60;;;7.90;;
48526;SDS011;34317;51.660;5.824;2023-03-08T09:29:10;17.65;;;8.80;;
48526;SDS011;34317;51.660;5.824;2023-03-08T09:31:38;18.95;;;8.70;;
48526;SDS011;34317;51.660;5.824;2023-03-08T09:34:05;18.83;;;8.20;;
48526;SDS011;34317;51.660;5.824;2023-03-08T09:36:39;15.25;;;7.03;;
48526;SDS011;34317;51.660;5.824;2023-03-08T09:39:08;16.65;;;7.28;;
48526;SDS011;34317;51.660;5.824;2023-03-08T09:52:17;13.95;;;6.60;;
48526;SDS011;34317;51.660;5.824;2023-03-08T09:54:48;13.30;;;6.55;;
48526;SDS011;34317;51.660;5.824;2023-03-08T09:57:20;14.35;;;6.38;;
48526;SDS011;34317;51.660;5.824;2023-03-08T09:59:54;14.50;;;6.97;;
48526;SDS011;34317;51.660;5.824;2023-03-08T10:05:22;19.38;;;8.10;;
48526;SDS011;34317;51.660;5.824;2023-03-08T10:08:00;16.08;;;7.35;;
48526;SDS011;34317;51.660;5.824;2023-03-08T10:10:48;16.50;;;7.18;;
48526;SDS011;34317;51.660;5.824;2023-03-08T10:16:05;15.20;;;7.00;;
48526;SDS011;34317;51.660;5.824;2023-03-08T10:21:39;13.43;;;6.18;;
48526;SDS011;34317;51.660;5.824;2023-03-08T10:24:16;11.77;;;6.20;;
48526;SDS011;34317;51.660;5.824;2023-03-08T10:26:45;11.57;;;6.35;;
48526;SDS011;34317;51.660;5.824;2023-03-08T10:29:12;14.25;;;6.07;;
48526;SDS011;34317;51.660;5.824;2023-03-08T10:31:42;13.60;;;6.25;;
48526;SDS011;34317;51.660;5.824;2023-03-08T10:34:14;10.88;;;5.80;;
48526;SDS011;34317;51.660;5.824;2023-03-08T10:39:17;11.25;;;5.85;;
48526;SDS011;34317;51.660;5.824;2023-03-08T10:41:46;12.40;;;5.68;;
48526;SDS011;34317;51.660;5.824;2023-03-08T10:44:38;10.27;;;5.57;;
48526;SDS011;34317;51.660;5.824;2023-03-08T10:49:48;9.93;;;4.90;;
48526;SDS011;34317;51.660;5.824;2023-03-08T10:52:22;8.48;;;4.85;;
48526;SDS011;34317;51.660;5.824;2023-03-08T10:57:28;8.75;;;4.88;;
48526;SDS011;34317;51.660;5.824;2023-03-08T10:59:59;9.18;;;4.68;;
48526;SDS011;34317;51.660;5.824;2023-03-08T11:02:38;11.90;;;5.03;;
48526;SDS011;34317;51.660;5.824;2023-03-08T11:05:19;10.23;;;4.57;;
48526;SDS011;34317;51.660;5.824;2023-03-08T11:07:49;9.38;;;5.40;;
48526;SDS011;34317;51.660;5.824;2023-03-08T11:10:19;9.00;;;4.57;;
48526;SDS011;34317;51.660;5.824;2023-03-08T11:12:59;11.68;;;4.57;;
48526;SDS011;34317;51.660;5.824;2023-03-08T11:15:27;8.82;;;4.55;;
48526;SDS011;34317;51.660;5.824;2023-03-08T11:18:13;10.05;;;5.50;;
48526;SDS011;34317;51.660;5.824;2023-03-08T11:20:48;10.07;;;4.95;;
48526;SDS011;34317;51.660;5.824;2023-03-08T11:23:25;10.48;;;6.40;;
48526;SDS011;34317;51.660;5.824;2023-03-08T11:26:09;8.52;;;4.68;;
48526;SDS011;34317;51.660;5.824;2023-03-08T11:31:24;11.80;;;4.78;;
48526;SDS011;34317;51.660;5.824;2023-03-08T11:36:32;8.93;;;4.70;;
48526;SDS011;34317;51.660;5.824;2023-03-08T11:44:48;7.22;;;3.50;;
48526;SDS011;34317;51.660;5.824;2023-03-08T11:53:08;6.88;;;3.53;;
48526;SDS011;34317;51.660;5.824;2023-03-08T11:58:48;8.18;;;4.22;;
48526;SDS011;34317;51.660;5.824;2023-03-08T12:01:46;8.80;;;4.43;;
48526;SDS011;34317;51.660;5.824;2023-03-08T12:04:20;8.48;;;3.95;;
48526;SDS011;34317;51.660;5.824;2023-03-08T12:06:53;6.53;;;4.03;;
48526;SDS011;34317;51.660;5.824;2023-03-08T12:15:38;8.18;;;4.10;;
48526;SDS011;34317;51.660;5.824;2023-03-08T12:18:21;7.93;;;4.63;;
48526;SDS011;34317;51.660;5.824;2023-03-08T12:20:50;8.10;;;4.13;;
48526;SDS011;34317;51.660;5.824;2023-03-08T12:23:55;6.32;;;4.22;;
48526;SDS011;34317;51.660;5.824;2023-03-08T12:26:45;6.60;;;3.60;;
48526;SDS011;34317;51.660;5.824;2023-03-08T12:29:20;6.30;;;4.10;;
48526;SDS011;34317;51.660;5.824;2023-03-08T12:31:54;6.07;;;3.42;;
48526;SDS011;34317;51.660;5.824;2023-03-08T12:34:39;5.85;;;3.40;;
48526;SDS011;34317;51.660;5.824;2023-03-08T12:37:23;6.07;;;3.33;;
48526;SDS011;34317;51.660;5.824;2023-03-08T12:39:59;6.80;;;3.25;;
48526;SDS011;34317;51.660;5.824;2023-03-08T12:45:07;6.65;;;3.40;;
48526;SDS011;34317;51.660;5.824;2023-03-08T12:50:39;7.30;;;4.10;;
48526;SDS011;34317;51.660;5.824;2023-03-08T12:58:46;6.82;;;3.50;;
48526;SDS011;34317;51.660;5.824;2023-03-08T13:01:23;5.72;;;3.60;;
48526;SDS011;34317;51.660;5.824;2023-03-08T13:12:29;5.72;;;3.40;;
48526;SDS011;34317;51.660;5.824;2023-03-08T13:23:01;6.47;;;3.70;;
48526;SDS011;34317;51.660;5.824;2023-03-08T13:25:49;6.25;;;3.50;;
48526;SDS011;34317;51.660;5.824;2023-03-08T13:28:19;6.97;;;3.55;;
48526;SDS011;34317;51.660;5.824;2023-03-08T13:30:49;6.70;;;3.78;;
48526;SDS011;34317;51.660;5.824;2023-03-08T13:36:02;6.13;;;3.53;;
48526;SDS011;34317;51.660;5.824;2023-03-08T13:38:34;5.90;;;3.10;;
48526;SDS011;34317;51.660;5.824;2023-03-08T13:41:03;5.15;;;3.40;;
48526;SDS011;34317;51.660;5.824;2023-03-08T13:43:31;5.10;;;3.13;;
48526;SDS011;34317;51.660;5.824;2023-03-08T13:46:02;5.88;;;2.78;;
48526;SDS011;34317;51.660;5.824;2023-03-08T13:48:33;3.88;;;2.50;;
48526;SDS011;34317;51.660;5.824;2023-03-08T13:51:01;5.72;;;2.47;;
48526;SDS011;34317;51.660;5.824;2023-03-08T13:53:33;3.80;;;2.40;;
48526;SDS011;34317;51.660;5.824;2023-03-08T13:56:04;4.30;;;2.78;;
48526;SDS011;34317;51.660;5.824;2023-03-08T13:58:33;4.57;;;2.67;;
48526;SDS011;34317;51.660;5.824;2023-03-08T14:01:09;5.68;;;3.03;;
48526;SDS011;34317;51.660;5.824;2023-03-08T14:03:38;4.95;;;2.97;;
48526;SDS011;34317;51.660;5.824;2023-03-08T14:08:48;4.80;;;2.78;;
48526;SDS011;34317;51.660;5.824;2023-03-08T14:11:35;4.32;;;2.83;;
48526;SDS011;34317;51.660;5.824;2023-03-08T14:14:06;4.53;;;2.70;;
48526;SDS011;34317;51.660;5.824;2023-03-08T14:16:41;4.75;;;2.53;;
48526;SDS011;34317;51.660;5.824;2023-03-08T14:21:49;4.10;;;2.50;;
48526;SDS011;34317;51.660;5.824;2023-03-08T14:24:23;5.00;;;2.88;;
48526;SDS011;34317;51.660;5.824;2023-03-08T14:26:54;5.70;;;2.85;;
48526;SDS011;34317;51.660;5.824;2023-03-08T14:29:24;3.78;;;2.67;;
48526;SDS011;34317;51.660;5.824;2023-03-08T14:32:01;5.47;;;3.33;;
48526;SDS011;34317;51.660;5.824;2023-03-08T14:34:29;5.00;;;3.40;;
48526;SDS011;34317;51.660;5.824;2023-03-08T14:37:46;5.90;;;3.40;;
48526;SDS011;34317;51.660;5.824;2023-03-08T14:39:52;4.65;;;2.88;;
48526;SDS011;34317;51.660;5.824;2023-03-08T14:47:54;4.43;;;2.80;;
48526;SDS011;34317;51.660;5.824;2023-03-08T14:50:25;5.65;;;2.80;;
48526;SDS011;34317;51.660;5.824;2023-03-08T14:52:58;5.07;;;3.10;;
48526;SDS011;34317;51.660;5.824;2023-03-08T14:55:31;6.15;;;3.03;;
48526;SDS011;34317;51.660;5.824;2023-03-08T14:58:01;4.35;;;2.90;;
48526;SDS011;34317;51.660;5.824;2023-03-08T15:00:30;5.43;;;3.25;;
48526;SDS011;34317;51.660;5.824;2023-03-08T15:02:59;5.38;;;2.85;;
48526;SDS011;34317;51.660;5.824;2023-03-08T15:05:26;4.63;;;3.13;;
48526;SDS011;34317;51.660;5.824;2023-03-08T15:07:56;4.95;;;3.30;;
48526;SDS011;34317;51.660;5.824;2023-03-08T15:10:36;4.53;;;2.83;;
48526;SDS011;34317;51.660;5.824;2023-03-08T15:13:12;4.35;;;2.65;;
48526;SDS011;34317;51.660;5.824;2023-03-08T15:15:41;4.70;;;3.15;;
48526;SDS011;34317;51.660;5.824;2023-03-08T15:18:09;5.00;;;2.78;;
48526;SDS011;34317;51.660;5.824;2023-03-08T15:20:37;4.28;;;2.60;;
48526;SDS011;34317;51.660;5.824;2023-03-08T15:23:12;6.00;;;2.88;;
48526;SDS011;34317;51.660;5.824;2023-03-08T15:25:48;4.53;;;2.80;;
48526;SDS011;34317;51.660;5.824;2023-03-08T15:28:16;3.83;;;2.60;;
48526;SDS011;34317;51.660;5.824;2023-03-08T15:30:44;5.28;;;2.10;;
48526;SDS011;34317;51.660;5.824;2023-03-08T15:33:12;3.40;;;2.20;;
48526;SDS011;34317;51.660;5.824;2023-03-08T15:35:39;5.15;;;3.03;;
48526;SDS011;34317;51.660;5.824;2023-03-08T15:38:09;4.53;;;2.78;;
48526;SDS011;34317;51.660;5.824;2023-03-08T15:40:38;5.57;;;3.40;;
48526;SDS011;34317;51.660;5.824;2023-03-08T15:43:05;4.63;;;2.90;;
48526;SDS011;34317;51.660;5.824;2023-03-08T15:45:32;5.28;;;2.95;;
48526;SDS011;34317;51.660;5.824;2023-03-08T15:48:04;5.47;;;2.75;;
48526;SDS011;34317;51.660;5.824;2023-03-08T15:50:32;5.32;;;2.83;;
48526;SDS011;34317;51.660;5.824;2023-03-08T15:53:00;4.18;;;2.50;;
48526;SDS011;34317;51.660;5.824;2023-03-08T15:55:28;5.50;;;2.95;;
48526;SDS011;34317;51.660;5.824;2023-03-08T15:57:56;4.20;;;2.45;;
48526;SDS011;34317;51.660;5.824;2023-03-08T16:00:24;3.72;;;2.33;;
48526;SDS011;34317;51.660;5.824;2023-03-08T16:02:52;5.03;;;2.50;;
48526;SDS011;34317;51.660;5.824;2023-03-08T16:05:20;3.90;;;2.30;;
48526;SDS011;34317;51.660;5.824;2023-03-08T16:07:55;3.95;;;2.40;;
48526;SDS011;34317;51.660;5.824;2023-03-08T16:10:25;6.03;;;3.03;;
48526;SDS011;34317;51.660;5.824;2023-03-08T16:12:54;4.65;;;2.45;;
48526;SDS011;34317;51.660;5.824;2023-03-08T16:15:21;5.15;;;2.83;;
48526;SDS011;34317;51.660;5.824;2023-03-08T16:17:48;4.47;;;2.60;;
48526;SDS011;34317;51.660;5.824;2023-03-08T16:20:16;5.22;;;3.13;;
48526;SDS011;34317;51.660;5.824;2023-03-08T16:22:43;5.40;;;3.15;;
48526;SDS011;34317;51.660;5.824;2023-03-08T16:25:11;6.00;;;2.97;;
48526;SDS011;34317;51.660;5.824;2023-03-08T16:30:40;6.25;;;3.58;;
48526;SDS011;34317;51.660;5.824;2023-03-08T16:33:08;5.78;;;3.58;;